createdAt,value
2019-05-22T00:01:10.906Z,95.33
2019-05-22T00:03:45.379Z,95.07
2019-05-22T00:06:16.961Z,94.90
2019-05-22T00:08:48.151Z,94.98
2019-05-22T00:11:19.692Z,95.11
2019-05-22T00:13:50.886Z,94.88
2019-05-22T00:16:22.139Z,95.21
2019-05-22T00:18:52.735Z,95.64
2019-05-22T00:21:23.122Z,95.67
2019-05-22T00:23:55.046Z,95.58
2019-05-22T00:26:26.310Z,95.35
2019-05-22T00:28:56.506Z,94.70
2019-05-22T00:31:27.181Z,94.50
2019-05-22T00:33:57.713Z,94.53
2019-05-22T00:36:27.805Z,94.36
2019-05-22T00:38:57.570Z,94.33
2019-05-22T00:41:28.840Z,94.71
2019-05-22T00:43:59.630Z,95.03
2019-05-22T00:46:30.056Z,95.32
2019-05-22T00:49:01.422Z,95.17
2019-05-22T00:51:34.985Z,95.04
2019-05-22T00:54:18.275Z,94.88
2019-05-22T00:56:56.909Z,94.72
2019-05-22T00:59:31.471Z,94.17
2019-05-22T01:02:05.313Z,93.76
2019-05-22T01:04:36.124Z,93.82
2019-05-22T01:07:18.645Z,94.14
2019-05-22T01:09:50.242Z,94.20
2019-05-22T01:12:29.845Z,93.81
2019-05-22T01:15:04.445Z,93.92
2019-05-22T01:17:36.750Z,93.83
2019-05-22T01:20:10.399Z,93.41
2019-05-22T01:22:41.677Z,93.57
2019-05-22T01:25:14.189Z,93.65
2019-05-22T01:27:45.857Z,93.29
2019-05-22T01:30:18.810Z,93.05
2019-05-22T01:32:53.133Z,92.92
2019-05-22T01:35:29.953Z,92.74
2019-05-22T01:37:59.853Z,92.75
2019-05-22T01:40:39.550Z,92.96
2019-05-22T01:43:11.518Z,92.48
2019-05-22T01:45:43.230Z,92.00
2019-05-22T01:48:19.325Z,92.16
2019-05-22T01:50:51.737Z,92.25
2019-05-22T01:53:25.277Z,92.59
2019-05-22T01:55:57.956Z,92.59
2019-05-22T01:58:29.707Z,92.40
2019-05-22T02:01:00.554Z,92.59
2019-05-22T02:03:31.211Z,92.66
2019-05-22T02:06:01.551Z,92.89
2019-05-22T02:08:32.338Z,92.60
2019-05-22T02:11:03.677Z,92.23
2019-05-22T02:13:37.891Z,91.83
2019-05-22T02:16:09.008Z,91.63
2019-05-22T02:18:40.476Z,91.33
2019-05-22T02:21:12.306Z,90.81
2019-05-22T02:23:43.014Z,90.82
2019-05-22T02:26:13.388Z,91.08
2019-05-22T02:28:43.484Z,90.58
2019-05-22T02:31:15.041Z,90.62
2019-05-22T02:34:01.264Z,90.28
2019-05-22T02:36:32.793Z,90.36
2019-05-22T02:39:03.968Z,90.24
2019-05-22T02:41:40.755Z,90.22
2019-05-22T02:44:10.881Z,88.75
2019-05-22T02:46:41.203Z,88.29
2019-05-22T02:49:14.124Z,88.66
2019-05-22T02:51:43.709Z,88.92
2019-05-22T02:54:14.066Z,88.98
2019-05-22T02:56:43.827Z,89.11
2019-05-22T02:59:13.649Z,89.81
2019-05-22T03:01:43.401Z,90.20
2019-05-22T03:04:15.858Z,90.57
2019-05-22T03:06:45.279Z,90.62
2019-05-22T03:09:18.450Z,90.65
2019-05-22T03:11:50.937Z,90.19
2019-05-22T03:14:21.845Z,90.87
2019-05-22T03:16:54.319Z,91.43
2019-05-22T03:19:36.758Z,91.54
2019-05-22T03:22:21.429Z,91.39
2019-05-22T03:24:51.926Z,91.30
2019-05-22T03:27:24.504Z,90.59
2019-05-22T03:29:55.390Z,89.88
2019-05-22T03:32:25.457Z,89.61
2019-05-22T03:34:54.953Z,88.92
2019-05-22T03:37:26.025Z,88.79
2019-05-22T03:39:56.261Z,88.77
2019-05-22T03:42:26.024Z,88.71
2019-05-22T03:44:55.850Z,88.37
2019-05-22T03:47:29.695Z,88.23
2019-05-22T03:49:59.897Z,87.88
2019-05-22T03:52:31.097Z,87.47
2019-05-22T03:55:00.855Z,86.30
2019-05-22T03:57:32.403Z,85.73
2019-05-22T04:00:03.121Z,85.70
2019-05-22T04:02:33.124Z,85.55
2019-05-22T04:05:03.321Z,85.47
2019-05-22T04:07:33.758Z,85.64
2019-05-22T04:10:05.126Z,85.44
2019-05-22T04:12:34.805Z,84.91
2019-05-22T04:15:07.896Z,84.65
2019-05-22T04:17:39.831Z,84.38
2019-05-22T04:20:11.102Z,84.09
2019-05-22T04:22:40.985Z,83.60
2019-05-22T04:25:12.402Z,83.81
2019-05-22T04:27:42.499Z,84.30
2019-05-22T04:30:14.029Z,84.87
2019-05-22T04:32:44.301Z,84.55
2019-05-22T04:35:17.770Z,83.77
2019-05-22T04:37:48.656Z,83.23
2019-05-22T04:40:27.403Z,83.73
2019-05-22T04:42:59.602Z,83.62
2019-05-22T04:45:29.672Z,83.73
2019-05-22T04:48:05.216Z,83.36
2019-05-22T04:50:34.915Z,83.81
2019-05-22T04:53:05.164Z,83.11
2019-05-22T04:55:34.909Z,83.19
2019-05-22T04:58:07.579Z,83.18
2019-05-22T05:00:37.410Z,83.46
2019-05-22T05:03:08.908Z,83.53
2019-05-22T05:05:49.891Z,83.32
2019-05-22T05:08:19.607Z,83.19
2019-05-22T05:10:51.085Z,83.35
2019-05-22T05:13:20.875Z,83.52
2019-05-22T05:15:50.295Z,83.13
2019-05-22T05:18:19.890Z,82.12
2019-05-22T05:20:49.388Z,82.11
2019-05-22T05:23:19.096Z,82.06
2019-05-22T05:25:48.721Z,82.19
2019-05-22T05:28:18.602Z,81.86
2019-05-22T05:30:48.086Z,82.36
2019-05-22T05:33:19.159Z,82.57
2019-05-22T05:35:49.881Z,83.25
2019-05-22T05:38:23.356Z,83.09
2019-05-22T05:40:52.841Z,83.24
2019-05-22T05:43:23.959Z,82.39
2019-05-22T05:45:53.538Z,81.84
2019-05-22T05:48:23.525Z,81.79
2019-05-22T05:51:08.444Z,81.95
2019-05-22T05:54:02.522Z,82.49
2019-05-22T05:56:33.823Z,82.91
2019-05-22T05:59:06.879Z,82.21
2019-05-22T06:01:38.704Z,81.51
2019-05-22T06:04:09.203Z,81.23
2019-05-22T06:06:41.845Z,80.19
2019-05-22T06:09:14.709Z,80.31
2019-05-22T06:11:48.573Z,80.67
2019-05-22T06:14:28.359Z,81.16
2019-05-22T06:17:13.936Z,81.63
2019-05-22T06:19:47.074Z,81.69
2019-05-22T06:22:17.327Z,81.50
2019-05-22T06:24:59.761Z,81.32
2019-05-22T06:27:35.163Z,81.31
2019-05-22T06:30:08.357Z,80.16
2019-05-22T06:33:08.198Z,80.23
2019-05-22T06:35:38.638Z,80.38
2019-05-22T06:38:28.091Z,80.11
2019-05-22T06:40:57.746Z,80.77
2019-05-22T06:43:31.381Z,80.54
2019-05-22T06:46:01.056Z,80.24
2019-05-22T06:48:30.871Z,79.89
2019-05-22T06:51:00.479Z,79.85
2019-05-22T06:53:30.082Z,78.47
2019-05-22T06:55:59.802Z,78.05
2019-05-22T06:58:29.338Z,77.88
2019-05-22T07:00:58.918Z,78.32
2019-05-22T07:03:28.724Z,78.79
2019-05-22T07:05:59.403Z,78.33
2019-05-22T07:08:29.056Z,77.40
2019-05-22T07:10:59.135Z,77.59
2019-05-22T07:13:29.933Z,76.89
2019-05-22T07:16:02.824Z,77.42
2019-05-22T07:18:32.725Z,76.43
2019-05-22T07:21:03.520Z,76.77
2019-05-22T07:23:34.711Z,75.91
2019-05-22T07:26:06.147Z,74.94
2019-05-22T07:28:37.757Z,75.21
2019-05-22T07:31:07.446Z,75.75
2019-05-22T07:33:37.178Z,76.21
2019-05-22T07:36:12.175Z,75.54
2019-05-22T07:38:38.689Z,76.06
2019-05-22T07:41:09.829Z,76.16
2019-05-22T07:43:41.645Z,76.47
2019-05-22T07:46:10.604Z,76.18
2019-05-22T07:48:41.530Z,75.58
2019-05-22T07:51:11.407Z,73.37
2019-05-22T07:53:41.945Z,72.02
2019-05-22T07:56:11.834Z,72.06
2019-05-22T07:58:43.380Z,71.38
2019-05-22T08:01:16.027Z,70.40
2019-05-22T08:03:47.656Z,70.04
2019-05-22T08:06:18.213Z,70.69
2019-05-22T08:08:50.676Z,69.76
2019-05-22T08:11:20.124Z,70.15
2019-05-22T08:13:50.480Z,71.37
2019-05-22T08:16:20.808Z,71.50
2019-05-22T08:18:51.243Z,70.99
2019-05-22T08:21:23.561Z,69.88
2019-05-22T08:23:54.579Z,68.29
2019-05-22T08:26:24.775Z,67.87
2019-05-22T08:28:54.417Z,63.78
2019-05-22T08:31:24.654Z,64.13
2019-05-22T08:33:54.405Z,65.72
2019-05-22T08:36:24.070Z,67.34
2019-05-22T08:38:54.914Z,67.70
2019-05-22T08:41:28.388Z,68.86
2019-05-22T08:44:15.104Z,68.95
2019-05-22T08:46:31.095Z,67.62
2019-05-22T08:49:01.500Z,68.26
2019-05-22T08:51:31.089Z,67.41
2019-05-22T08:54:05.653Z,66.90
2019-05-22T08:56:38.420Z,66.71
2019-05-22T08:59:18.875Z,64.93
2019-05-22T09:01:40.084Z,66.20
2019-05-22T09:04:10.063Z,65.74
2019-05-22T09:06:39.577Z,66.90
2019-05-22T09:09:09.061Z,64.41
2019-05-22T09:11:38.503Z,64.45
2019-05-22T09:14:07.981Z,64.40
2019-05-22T09:16:37.734Z,63.81
2019-05-22T09:19:07.437Z,64.10
2019-05-22T09:21:40.538Z,63.07
2019-05-22T09:24:11.940Z,61.99
2019-05-22T09:26:42.231Z,63.14
2019-05-22T09:29:12.872Z,62.87
2019-05-22T09:31:42.313Z,61.77
2019-05-22T09:34:11.793Z,62.56
2019-05-22T09:36:41.653Z,62.53
2019-05-22T09:39:12.927Z,63.00
2019-05-22T09:41:42.443Z,62.56
2019-05-22T09:44:15.177Z,61.85
2019-05-22T09:46:43.476Z,61.22
2019-05-22T09:49:12.994Z,61.16
2019-05-22T09:51:42.560Z,61.88
2019-05-22T09:54:12.239Z,60.35
2019-05-22T09:56:41.864Z,61.23
2019-05-22T09:59:11.404Z,60.96
2019-05-22T10:01:40.992Z,59.76
2019-05-22T10:04:12.595Z,59.96
2019-05-22T10:06:42.292Z,57.71
2019-05-22T10:09:11.952Z,58.24
2019-05-22T10:11:42.065Z,56.63
2019-05-22T10:14:11.994Z,58.47
2019-05-22T10:16:41.462Z,57.75
2019-05-22T10:19:11.249Z,58.05
2019-05-22T10:21:41.569Z,57.80
2019-05-22T10:24:11.252Z,57.09
2019-05-22T10:26:41.054Z,58.22
2019-05-22T10:29:10.993Z,57.77
2019-05-22T10:31:40.497Z,57.38
2019-05-22T10:34:10.039Z,56.05
2019-05-22T10:36:42.879Z,56.48
2019-05-22T10:39:12.229Z,55.20
2019-05-22T10:41:42.112Z,55.82
2019-05-22T10:44:12.057Z,54.84
2019-05-22T10:46:41.866Z,55.62
2019-05-22T10:49:11.432Z,54.55
2019-05-22T10:51:40.907Z,54.42
2019-05-22T10:54:10.728Z,54.21
2019-05-22T10:56:40.176Z,55.34
2019-05-22T10:59:09.674Z,54.30
2019-05-22T11:01:39.437Z,53.51
2019-05-22T11:04:08.936Z,54.57
2019-05-22T11:06:38.894Z,54.14
2019-05-22T11:09:10.010Z,54.14
2019-05-22T11:11:40.314Z,55.51
2019-05-22T11:14:11.455Z,55.60
2019-05-22T11:16:41.575Z,53.79
2019-05-22T11:19:11.474Z,51.37
2019-05-22T11:21:42.114Z,52.73
2019-05-22T11:24:15.015Z,53.06
2019-05-22T11:26:45.842Z,51.36
2019-05-22T11:29:15.643Z,52.73
2019-05-22T11:31:45.045Z,53.24
2019-05-22T11:34:14.772Z,55.03
2019-05-22T11:36:44.721Z,55.36
2019-05-22T11:39:15.876Z,54.12
2019-05-22T11:41:45.954Z,52.78
2019-05-22T11:44:15.473Z,52.21
2019-05-22T11:46:45.029Z,52.15
2019-05-22T11:49:14.556Z,50.84
2019-05-22T11:51:44.161Z,52.42
2019-05-22T11:54:13.676Z,51.63
2019-05-22T11:56:43.151Z,50.53
2019-05-22T11:59:13.839Z,50.30
2019-05-22T12:01:44.047Z,52.55
2019-05-22T12:04:14.771Z,52.87
2019-05-22T12:06:45.227Z,51.63
2019-05-22T12:09:14.939Z,50.96
2019-05-22T12:11:45.167Z,50.71
2019-05-22T12:14:15.874Z,52.70
2019-05-22T12:16:46.006Z,50.16
2019-05-22T12:19:15.514Z,50.83
2019-05-22T12:21:44.978Z,51.27
2019-05-22T12:24:27.230Z,52.19
2019-05-22T12:26:46.317Z,50.93
2019-05-22T12:29:17.291Z,53.83
2019-05-22T12:31:47.830Z,52.61
2019-05-22T12:34:18.028Z,54.65
2019-05-22T12:36:51.202Z,52.63
2019-05-22T12:39:21.813Z,51.68
2019-05-22T12:41:51.550Z,52.52
2019-05-22T12:44:21.678Z,52.60
2019-05-22T12:46:51.786Z,52.71
2019-05-22T12:49:21.498Z,52.82
2019-05-22T12:51:51.006Z,54.84
2019-05-22T12:54:20.749Z,51.86
2019-05-22T12:56:50.436Z,51.83
2019-05-22T12:59:21.129Z,50.62
2019-05-22T13:01:52.443Z,49.96
2019-05-22T13:04:23.403Z,49.10
2019-05-22T13:06:53.567Z,49.27
2019-05-22T13:09:23.431Z,49.51
2019-05-22T13:11:53.020Z,50.34
2019-05-22T13:14:22.480Z,49.43
2019-05-22T13:16:52.180Z,49.87
2019-05-22T13:19:23.366Z,50.71
2019-05-22T13:21:56.714Z,52.29
2019-05-22T13:24:28.181Z,52.70
2019-05-22T13:26:59.196Z,53.11
2019-05-22T13:29:31.472Z,55.17
2019-05-22T13:32:01.055Z,53.81
2019-05-22T13:34:32.597Z,55.49
2019-05-22T13:37:03.829Z,53.87
2019-05-22T13:39:33.595Z,54.33
2019-05-22T13:42:03.277Z,52.49
2019-05-22T13:44:32.911Z,52.01
2019-05-22T13:47:02.894Z,50.06
2019-05-22T13:49:34.143Z,50.49
2019-05-22T13:52:04.049Z,54.65
2019-05-22T13:54:33.828Z,54.78
2019-05-22T13:57:07.273Z,55.94
2019-05-22T13:59:37.447Z,55.31
2019-05-22T14:02:08.082Z,56.99
2019-05-22T14:04:38.069Z,56.96
2019-05-22T14:07:08.938Z,56.27
2019-05-22T14:09:40.849Z,56.71
2019-05-22T14:12:12.024Z,56.25
2019-05-22T14:14:42.695Z,56.94
2019-05-22T14:17:12.706Z,57.03
2019-05-22T14:19:42.468Z,57.43
2019-05-22T14:22:12.292Z,57.24
2019-05-22T14:24:41.814Z,58.80
2019-05-22T14:27:11.318Z,57.60
2019-05-22T14:29:42.696Z,57.98
2019-05-22T14:32:13.788Z,58.08
2019-05-22T14:34:44.269Z,58.09
2019-05-22T14:37:14.386Z,59.05
2019-05-22T14:39:43.894Z,58.80
2019-05-22T14:42:13.986Z,58.76
2019-05-22T14:44:43.491Z,59.35
2019-05-22T14:47:16.310Z,59.90
2019-05-22T14:49:44.346Z,61.06
2019-05-22T14:52:14.758Z,61.11
2019-05-22T14:54:44.440Z,58.63
2019-05-22T14:57:14.591Z,59.08
2019-05-22T14:59:44.163Z,58.09
2019-05-22T15:02:14.153Z,58.03
2019-05-22T15:04:43.671Z,58.45
2019-05-22T15:07:13.424Z,57.78
2019-05-22T15:09:43.085Z,56.83
2019-05-22T15:12:12.944Z,56.42
2019-05-22T15:14:42.455Z,53.99
2019-05-22T15:17:28.588Z,52.21
2019-05-22T15:19:46.501Z,56.09
2019-05-22T15:22:17.114Z,53.03
2019-05-22T15:24:46.737Z,56.46
2019-05-22T15:27:16.296Z,56.47
2019-05-22T15:29:45.814Z,53.82
2019-05-22T15:32:16.888Z,53.35
2019-05-22T15:34:46.989Z,52.71
2019-05-22T15:37:21.395Z,52.43
2019-05-22T15:39:51.186Z,51.77
2019-05-22T15:42:36.759Z,51.45
2019-05-22T15:45:09.733Z,50.53
2019-05-22T15:47:54.691Z,49.77
2019-05-22T15:50:17.545Z,49.93
2019-05-22T15:52:53.672Z,51.70
2019-05-22T15:55:25.371Z,51.44
2019-05-22T15:57:58.316Z,51.46
2019-05-22T16:00:30.958Z,49.86
2019-05-22T16:03:09.805Z,50.71
2019-05-22T16:05:41.252Z,52.83
2019-05-22T16:08:11.803Z,55.50
2019-05-22T16:10:43.180Z,56.55
2019-05-22T16:13:14.769Z,57.85
2019-05-22T16:15:47.340Z,58.27
2019-05-22T16:18:20.174Z,58.10
2019-05-22T16:20:50.674Z,58.28
2019-05-22T16:23:22.159Z,58.36
2019-05-22T16:25:53.428Z,58.48
2019-05-22T16:28:23.981Z,58.18
2019-05-22T16:30:55.605Z,58.31
2019-05-22T16:33:26.026Z,58.20
2019-05-22T16:35:55.504Z,57.43
2019-05-22T16:38:25.570Z,57.47
2019-05-22T16:40:55.692Z,58.07
2019-05-22T16:43:25.245Z,57.25
2019-05-22T16:45:56.059Z,54.32
2019-05-22T16:48:29.449Z,53.36
2019-05-22T16:50:59.880Z,50.78
2019-05-22T16:53:30.369Z,48.21
2019-05-22T16:55:59.909Z,50.14
2019-05-22T16:58:30.801Z,50.34
2019-05-22T17:01:00.671Z,52.31
2019-05-22T17:03:31.332Z,53.49
2019-05-22T17:06:01.009Z,53.64
2019-05-22T17:08:30.924Z,53.36
2019-05-22T17:11:03.677Z,52.05
2019-05-22T17:13:34.120Z,51.47
2019-05-22T17:16:04.776Z,50.48
2019-05-22T17:18:46.814Z,50.02
2019-05-22T17:21:07.007Z,51.38
2019-05-22T17:23:36.531Z,51.67
2019-05-22T17:26:07.716Z,49.82
2019-05-22T17:28:38.121Z,49.31
2019-05-22T17:31:07.910Z,49.48
2019-05-22T17:33:37.961Z,50.40
2019-05-22T17:36:07.989Z,49.37
2019-05-22T17:38:38.785Z,47.53
2019-05-22T17:41:10.860Z,48.99
2019-05-22T17:43:42.309Z,46.11
2019-05-22T17:46:13.530Z,44.88
2019-05-22T17:48:43.312Z,45.19
2019-05-22T17:51:13.548Z,45.20
2019-05-22T17:53:45.497Z,46.31
2019-05-22T17:56:15.795Z,46.54
2019-05-22T17:58:45.396Z,48.43
2019-05-22T18:01:16.650Z,48.99
2019-05-22T18:03:46.656Z,48.83
2019-05-22T18:06:16.240Z,49.64
2019-05-22T18:08:45.694Z,49.33
2019-05-22T18:11:16.204Z,48.95
2019-05-22T18:13:57.839Z,49.62
2019-05-22T18:16:31.146Z,51.06
2019-05-22T18:19:00.976Z,53.23
2019-05-22T18:21:32.337Z,53.80
2019-05-22T18:24:03.491Z,55.23
2019-05-22T18:26:33.295Z,56.44
2019-05-22T18:29:02.903Z,58.03
2019-05-22T18:31:34.103Z,59.10
2019-05-22T18:34:05.267Z,59.43
2019-05-22T18:36:36.490Z,59.51
2019-05-22T18:39:08.708Z,60.19
2019-05-22T18:41:38.694Z,60.15
2019-05-22T18:44:08.215Z,60.67
2019-05-22T18:46:38.109Z,61.49
2019-05-22T18:49:07.600Z,62.02
2019-05-22T18:51:37.175Z,62.52
2019-05-22T18:54:06.595Z,63.03
2019-05-22T18:56:36.398Z,63.99
2019-05-22T18:59:05.980Z,64.35
2019-05-22T19:01:35.478Z,64.04
2019-05-22T19:04:05.487Z,64.03
2019-05-22T19:06:36.533Z,64.19
2019-05-22T19:09:09.567Z,64.06
2019-05-22T19:11:39.341Z,63.98
2019-05-22T19:14:10.102Z,64.01
2019-05-22T19:16:39.701Z,64.48
2019-05-22T19:19:09.243Z,64.65
2019-05-22T19:21:38.908Z,65.06
2019-05-22T19:24:08.351Z,65.47
2019-05-22T19:26:39.575Z,66.03
2019-05-22T19:29:09.227Z,66.34
2019-05-22T19:31:38.748Z,67.14
2019-05-22T19:34:08.545Z,67.48
2019-05-22T19:36:38.000Z,67.65
2019-05-22T19:39:09.121Z,67.53
2019-05-22T19:41:38.636Z,67.83
2019-05-22T19:44:09.193Z,68.13
2019-05-22T19:46:39.028Z,68.43
2019-05-22T19:49:08.453Z,68.67
2019-05-22T19:51:39.704Z,69.55
2019-05-22T19:54:10.551Z,69.81
2019-05-22T19:56:41.572Z,70.47
2019-05-22T19:59:13.538Z,70.00
2019-05-22T20:01:43.695Z,70.69
2019-05-22T20:04:13.736Z,70.75
2019-05-22T20:06:43.302Z,71.32
2019-05-22T20:09:13.303Z,71.26
2019-05-22T20:11:42.879Z,71.98
2019-05-22T20:14:12.452Z,72.14
2019-05-22T20:16:42.001Z,72.16
2019-05-22T20:19:12.052Z,72.50
2019-05-22T20:21:41.694Z,72.66
2019-05-22T20:24:11.876Z,73.00
2019-05-22T20:26:41.998Z,73.71
2019-05-22T20:29:14.303Z,74.00
2019-05-22T20:31:43.891Z,73.98
2019-05-22T20:34:13.776Z,74.34
2019-05-22T20:36:43.986Z,74.62
2019-05-22T20:39:17.528Z,75.11
2019-05-22T20:41:47.742Z,75.49
2019-05-22T20:44:18.088Z,76.42
2019-05-22T20:46:48.748Z,76.68
2019-05-22T20:49:19.922Z,77.12
2019-05-22T20:51:52.448Z,77.09
2019-05-22T20:54:22.030Z,77.13
2019-05-22T20:56:53.866Z,77.98
2019-05-22T20:59:24.424Z,78.42
2019-05-22T21:01:54.129Z,77.98
2019-05-22T21:04:25.384Z,77.92
2019-05-22T21:07:00.128Z,78.47
2019-05-22T21:09:31.654Z,78.50
2019-05-22T21:12:01.558Z,78.01
2019-05-22T21:14:32.736Z,77.19
2019-05-22T21:17:05.518Z,76.71
2019-05-22T21:19:35.735Z,76.50
2019-05-22T21:22:08.371Z,76.52
2019-05-22T21:24:38.409Z,76.37
2019-05-22T21:27:09.758Z,76.12
2019-05-22T21:29:39.399Z,77.59
2019-05-22T21:32:10.644Z,77.38
2019-05-22T21:34:40.416Z,77.39
2019-05-22T21:37:10.797Z,77.02
2019-05-22T21:39:42.111Z,76.92
2019-05-22T21:42:11.942Z,76.42
2019-05-22T21:44:41.698Z,76.51
2019-05-22T21:47:11.407Z,76.61
2019-05-22T21:49:42.811Z,77.03
2019-05-22T21:52:13.253Z,77.15
2019-05-22T21:54:43.427Z,77.36
2019-05-22T21:57:14.939Z,77.54
2019-05-22T21:59:44.752Z,77.68
2019-05-22T22:02:18.936Z,77.80
2019-05-22T22:04:49.140Z,77.98
2019-05-22T22:07:19.385Z,77.87
2019-05-22T22:09:49.794Z,77.84
2019-05-22T22:12:23.070Z,78.02
2019-05-22T22:14:52.865Z,78.14
2019-05-22T22:17:24.119Z,78.00
2019-05-22T22:19:55.231Z,78.15
2019-05-22T22:22:28.258Z,78.17
2019-05-22T22:24:57.675Z,77.90
2019-05-22T22:27:27.428Z,77.99
2019-05-22T22:29:57.256Z,77.84
2019-05-22T22:32:28.608Z,77.68
2019-05-22T22:34:58.975Z,77.57
2019-05-22T22:37:29.020Z,77.65
2019-05-22T22:40:00.161Z,77.54
2019-05-22T22:42:31.469Z,77.45
2019-05-22T22:45:03.733Z,77.26
2019-05-22T22:47:35.216Z,77.20
2019-05-22T22:50:07.549Z,77.35
2019-05-22T22:52:39.550Z,77.94
2019-05-22T22:55:11.533Z,77.73
2019-05-22T22:57:44.199Z,77.85
2019-05-22T23:00:17.555Z,77.62
2019-05-22T23:02:49.147Z,77.64
2019-05-22T23:05:19.268Z,77.95
2019-05-22T23:07:50.360Z,78.40
2019-05-22T23:10:21.634Z,78.65
2019-05-22T23:12:54.178Z,78.62
2019-05-22T23:15:25.354Z,78.71
2019-05-22T23:17:55.602Z,78.82
2019-05-22T23:20:23.899Z,78.65
2019-05-22T23:22:52.465Z,78.58
2019-05-22T23:25:23.819Z,78.60
2019-05-22T23:27:53.365Z,78.56
2019-05-22T23:30:22.881Z,78.49
2019-05-22T23:32:52.558Z,78.48
2019-05-22T23:35:24.796Z,78.49
2019-05-22T23:37:54.463Z,78.54
2019-05-22T23:40:27.524Z,78.68
2019-05-22T23:43:00.535Z,78.79
2019-05-22T23:45:30.345Z,78.92
2019-05-22T23:48:06.952Z,78.91
2019-05-22T23:50:38.779Z,78.77
2019-05-22T23:53:10.293Z,79.09
2019-05-22T23:55:41.705Z,78.96
2019-05-22T23:58:13.095Z,79.08
